Time;durP1;ratioP1;P1;durP2;ratioP2;P2;SDS_P1;SDS_P2;PMS_P1;PMS_P2;Temp;Humidity;BMP_temperature;BMP_pressure;BME280_temperature;BME280_humidity;BME280_pressure;Samples;Min_cycle;Max_cycle;Signal;HPM_P1;HPM_P2
2023/06/27 00:00:09;;;;;;;34.07;3.53;;;;;;;24.98;62.30;99393.47;7312543;19;130945;-42
2023/06/27 00:02:34;;;;;;;36.90;3.88;;;;;;;25.03;62.21;99398.22;7314292;19;130058;-43
2023/06/27 00:05:00;;;;;;;46.50;4.07;;;;;;;25.06;61.86;99408.41;7314636;19;130039;-45
2023/06/27 00:07:28;;;;;;;37.08;4.10;;;;;;;25.05;62.10;99406.75;7314565;19;128942;-44
2023/06/27 00:09:54;;;;;;;34.80;3.58;;;;;;;25.04;62.46;99413.03;7313713;19;129177;-46
2023/06/27 00:12:20;;;;;;;31.52;3.65;;;;;;;25.02;61.70;99407.94;7314181;19;130418;-45
2023/06/27 00:14:46;;;;;;;94.53;7.83;;;;;;;25.04;62.26;99413.03;7311293;19;131137;-44
2023/06/27 00:17:12;;;;;;;32.13;3.70;;;;;;;25.04;62.33;99413.03;7311975;19;129057;-45
2023/06/27 00:19:40;;;;;;;38.88;3.83;;;;;;;24.96;61.73;99405.13;7313145;19;129337;-39
2023/06/27 00:22:09;;;;;;;51.38;4.63;;;;;;;25.00;61.58;99415.16;7310342;19;129273;-44
2023/06/27 00:24:38;;;;;;;50.90;4.45;;;;;;;25.01;61.99;99421.22;7312646;19;128826;-44
2023/06/27 00:27:04;;;;;;;53.70;4.88;;;;;;;24.94;61.59;99415.00;7314001;19;129394;-39
2023/06/27 00:29:30;;;;;;;34.77;3.83;;;;;;;25.01;62.34;99429.13;7312803;19;129390;-44
2023/06/27 00:31:55;;;;;;;29.13;3.47;;;;;;;25.01;61.89;99423.84;7308152;19;129586;-44
2023/06/27 00:34:21;;;;;;;30.80;3.50;;;;;;;25.02;62.25;99438.66;7313699;19;129145;-44
2023/06/27 00:36:46;;;;;;;50.53;4.50;;;;;;;25.01;61.58;99437.00;7313577;19;129278;-39
2023/06/27 00:39:11;;;;;;;16.90;2.93;;;;;;;25.01;61.92;99437.00;7312776;19;128970;-45
2023/06/27 00:41:37;;;;;;;36.03;3.93;;;;;;;25.01;61.75;99439.63;7310235;19;128884;-40
2023/06/27 00:44:07;;;;;;;48.63;4.40;;;;;;;25.02;62.11;99438.66;7311857;19;129116;-44
2023/06/27 00:46:37;;;;;;;44.78;4.63;;;;;;;24.99;61.98;99442.44;7309173;19;129500;-43
2023/06/27 00:49:05;;;;;;;27.95;3.00;;;;;;;24.99;61.59;99439.00;7311718;19;129431;-41
2023/06/27 00:51:31;;;;;;;27.88;3.28;;;;;;;24.97;61.98;99436.53;7309314;19;129798;-39
2023/06/27 00:53:56;;;;;;;29.93;3.73;;;;;;;24.99;61.63;99431.13;7312967;19;128862;-45
2023/06/27 00:56:22;;;;;;;32.10;3.63;;;;;;;24.99;61.78;99439.00;7312968;19;129007;-42
2023/06/27 00:58:48;;;;;;;38.67;4.20;;;;;;;24.99;61.74;99449.53;7309203;19;129108;-43
2023/06/27 01:01:13;;;;;;;24.73;3.23;;;;;;;24.97;61.61;99451.50;7307021;19;129421;-46
2023/06/27 01:03:39;;;;;;;56.93;5.13;;;;;;;24.99;61.87;99449.53;7308863;19;129309;-42
2023/06/27 01:06:35;;;;;;;59.43;5.43;;;;;;;25.01;61.43;99456.25;7309603;19;129143;-43
2023/06/27 01:09:10;;;;;;;32.50;3.83;;;;;;;25.01;61.63;99458.88;7311038;19;132069;-43
2023/06/27 01:11:41;;;;;;;25.13;3.03;;;;;;;25.00;61.44;99456.41;7309309;19;129240;-40
2023/06/27 01:14:09;;;;;;;24.90;3.40;;;;;;;24.96;61.81;99460.34;7313485;19;129139;-44
2023/06/27 01:16:36;;;;;;;30.75;3.63;;;;;;;24.87;61.09;99456.09;7312347;19;130067;-43
2023/06/27 01:19:07;;;;;;;39.20;3.67;;;;;;;24.96;61.35;99460.34;7311552;19;128992;-43
2023/06/27 01:21:34;;;;;;;36.80;4.07;;;;;;;24.96;61.07;99460.34;7310859;19;129617;-43
2023/06/27 01:24:03;;;;;;;25.20;3.20;;;;;;;24.96;61.21;99474.34;7312442;19;129104;-44
2023/06/27 01:26:28;;;;;;;17.63;2.67;;;;;;;24.94;61.57;99463.16;7312501;19;129600;-44
2023/06/27 01:28:55;;;;;;;32.47;3.67;;;;;;;24.93;61.06;99460.69;7312454;19;130158;-37
2023/06/27 01:31:28;;;;;;;;;;;;;;;24.96;61.41;99455.09;7310377;19;129986;-42
2023/06/27 01:34:18;;;;;;;28.00;3.42;;;;;;;24.98;61.44;99468.91;7312386;19;129616;-38
2023/06/27 01:37:00;;;;;;;26.85;3.05;;;;;;;24.94;61.04;99468.41;7311934;19;129151;-40
2023/06/27 01:39:30;;;;;;;52.20;5.03;;;;;;;24.95;60.58;99463.97;7311478;19;129517;-40
2023/06/27 01:42:01;;;;;;;50.97;4.38;;;;;;;24.94;60.74;99470.25;7306304;19;130538;-40
2023/06/27 01:44:27;;;;;;;26.58;3.10;;;;;;;24.93;60.66;99468.56;7312084;19;129340;-43
2023/06/27 01:46:53;;;;;;;41.43;4.40;;;;;;;24.86;61.21;99467.63;7311445;19;129247;-40
2023/06/27 01:49:18;;;;;;;32.63;3.67;;;;;;;24.91;60.92;99479.25;7312019;19;130115;-40
2023/06/27 01:51:44;;;;;;;28.90;3.67;;;;;;;24.93;60.79;99471.22;7309202;19;129291;-41
2023/06/27 01:54:09;;;;;;;25.40;3.23;;;;;;;24.92;60.36;99474.84;7312952;19;128740;-42
2023/06/27 01:56:35;;;;;;;39.37;3.77;;;;;;;24.92;61.07;99480.09;7318205;19;129020;-41
2023/06/27 01:59:01;;;;;;;20.57;3.43;;;;;;;24.90;60.34;99484.69;7318382;19;129295;-44
2023/06/27 02:01:26;;;;;;;36.83;3.67;;;;;;;24.85;60.73;99473.84;7316469;19;129574;-44
2023/06/27 02:03:52;;;;;;;28.23;3.40;;;;;;;24.89;60.55;99483.84;7319024;19;129000;-43
2023/06/27 02:06:18;;;;;;;26.17;3.13;;;;;;;24.91;60.54;99486.31;7318278;19;128901;-39
2023/06/27 02:08:45;;;;;;;36.63;3.70;;;;;;;24.82;60.18;99468.91;7318613;19;129543;-44
2023/06/27 02:11:10;;;;;;;23.88;3.00;;;;;;;24.90;60.49;99484.69;7315709;19;131454;-43
2023/06/27 02:13:37;;;;;;;46.17;4.07;;;;;;;24.89;60.30;99481.22;7318766;19;129241;-45
2023/06/27 02:16:03;;;;;;;37.20;3.88;;;;;;;24.91;60.05;99486.31;7317971;19;129114;-41
2023/06/27 02:18:29;;;;;;;56.58;4.85;;;;;;;24.88;59.95;99484.03;7316076;19;129519;-46
2023/06/27 02:20:55;;;;;;;32.97;3.23;;;;;;;24.84;60.00;99488.78;7314136;19;130951;-42
2023/06/27 02:23:20;;;;;;;42.50;3.97;;;;;;;24.87;60.57;99491.13;7317567;19;129557;-44
2023/06/27 02:25:46;;;;;;;72.17;5.83;;;;;;;24.80;60.41;99484.03;7313513;19;129328;-41
2023/06/27 02:28:11;;;;;;;42.77;4.27;;;;;;;24.89;60.14;99493.56;7315344;19;130403;-42
2023/06/27 02:30:37;;;;;;;32.50;3.23;;;;;;;24.89;59.79;99496.22;7313387;19;129873;-41
2023/06/27 02:33:02;;;;;;;43.17;3.80;;;;;;;24.88;60.54;99499.81;7314886;19;129481;-41
2023/06/27 02:35:27;;;;;;;29.47;3.17;;;;;;;24.88;60.13;99498.00;7309324;19;131247;-45
2023/06/27 02:37:53;;;;;;;63.63;5.40;;;;;;;24.88;60.02;99499.81;7311341;19;129296;-43
2023/06/27 02:40:18;;;;;;;48.40;4.50;;;;;;;24.87;60.24;99503.44;7311498;19;131249;-45
2023/06/27 02:42:43;;;;;;;63.90;5.10;;;;;;;24.87;59.67;99504.25;7311329;19;130151;-40
2023/06/27 02:45:09;;;;;;;31.67;3.30;;;;;;;24.86;59.88;99505.22;7314202;19;129494;-43
2023/06/27 02:47:35;;;;;;;11.37;2.07;;;;;;;24.86;59.93;99496.53;7313456;19;131259;-43
2023/06/27 02:50:00;;;;;;;62.07;4.93;;;;;;;24.85;59.58;99500.97;7311909;19;131073;-38
2023/06/27 02:52:25;;;;;;;54.07;4.93;;;;;;;24.87;59.89;99498.16;7312729;19;129088;-40
2023/06/27 02:54:52;;;;;;;44.20;4.00;;;;;;;24.85;59.65;99505.41;7311708;19;129331;-45
2023/06/27 02:57:17;;;;;;;22.58;2.72;;;;;;;24.84;60.07;99509.81;7313343;19;129152;-43
2023/06/27 02:59:43;;;;;;;19.83;2.73;;;;;;;24.82;59.40;99500.47;7310962;19;130998;-37
2023/06/27 03:02:08;;;;;;;81.80;6.30;;;;;;;24.83;59.37;99505.56;7309536;19;130605;-39
2023/06/27 03:04:33;;;;;;;51.97;4.67;;;;;;;24.84;59.70;99503.75;7312276;19;130342;-37
2023/06/27 03:06:59;;;;;;;10.00;1.97;;;;;;;24.83;59.76;99504.72;7310460;19;129126;-41
2023/06/27 03:09:24;;;;;;;38.17;3.33;;;;;;;24.83;59.91;99502.94;7310586;19;131212;-42
2023/06/27 03:11:49;;;;;;;53.17;4.47;;;;;;;24.73;59.68;99485.66;7309569;19;129256;-37
2023/06/27 03:17:36;;;;;;;74.93;5.60;;;;;;;24.82;59.77;99516.25;7310500;19;129950;-46
2023/06/27 03:20:03;;;;;;;28.93;2.80;;;;;;;24.83;59.42;99512.63;7311057;19;129118;-43
2023/06/27 03:22:28;;;;;;;;;;;;;;;24.91;59.10;99523.13;7313452;19;129067;-39
2023/06/27 03:24:53;;;;;;;33.17;3.27;;;;;;;24.83;60.04;99523.97;7311879;19;130852;-36
2023/06/27 03:27:23;;;;;;;71.80;5.70;;;;;;;24.82;59.04;99519.69;7311144;19;129065;-43
2023/06/27 03:29:49;;;;;;;56.45;5.10;;;;;;;24.79;59.88;99522.63;7310077;19;129952;-40
2023/06/27 03:32:15;;;;;;;40.80;3.97;;;;;;;24.79;58.96;99524.47;7310828;19;129146;-43
2023/06/27 03:34:41;;;;;;;53.00;4.43;;;;;;;24.78;59.41;99528.06;7310417;19;129474;-40
2023/06/27 03:37:07;;;;;;;;;;;;;;;24.75;59.35;99515.25;7313499;19;129437;-38
2023/06/27 03:39:32;;;;;;;67.57;5.63;;;;;;;24.76;59.62;99530.03;7311248;19;129298;-40
2023/06/27 03:41:57;;;;;;;36.93;3.47;;;;;;;24.78;59.56;99541.19;7309805;19;130944;-39
2023/06/27 03:44:23;;;;;;;23.97;2.60;;;;;;;24.75;59.38;99538.91;7311401;19;130372;-42
2023/06/27 03:46:48;;;;;;;44.37;4.10;;;;;;;24.77;59.72;99542.19;7310895;19;131544;-41
2023/06/27 03:49:13;;;;;;;106.03;8.43;;;;;;;24.73;59.39;99535.59;7312162;19;129833;-34
2023/06/27 03:51:42;;;;;;;32.35;3.42;;;;;;;24.76;59.48;99543.19;7309349;19;129309;-43
2023/06/27 03:54:09;;;;;;;39.85;3.67;;;;;;;24.75;59.03;99541.53;7312969;19;129308;-42
2023/06/27 03:56:34;;;;;;;;;;;;;;;24.83;59.11;99552.91;7313825;19;129139;-38
2023/06/27 03:58:59;;;;;;;43.20;3.83;;;;;;;24.76;58.75;99544.00;7311307;19;129604;-38
2023/06/27 04:01:25;;;;;;;35.00;3.13;;;;;;;24.74;58.61;99550.41;7313423;19;129033;-41
2023/06/27 04:03:50;;;;;;;91.90;6.70;;;;;;;24.73;59.63;99554.00;7309009;19;129771;-38
2023/06/27 04:06:16;;;;;;;36.30;3.27;;;;;;;24.72;59.24;99552.38;7311357;19;129717;-44
2023/06/27 04:08:41;;;;;;;34.57;3.20;;;;;;;24.71;59.04;99550.75;7308247;19;129763;-35
2023/06/27 04:11:06;;;;;;;28.33;2.90;;;;;;;24.72;59.68;99555.00;7312189;19;129599;-41
2023/06/27 04:13:32;;;;;;;30.37;2.87;;;;;;;24.73;59.00;99554.00;7311481;19;129241;-42
2023/06/27 04:15:57;;;;;;;30.87;3.00;;;;;;;24.72;59.03;99555.84;7314285;19;130890;-38
2023/06/27 04:18:22;;;;;;;34.50;3.10;;;;;;;24.72;59.33;99561.09;7309801;19;129995;-33
2023/06/27 04:20:48;;;;;;;49.67;4.30;;;;;;;24.71;59.14;99556.81;7309228;19;129560;-40
2023/06/27 04:23:13;;;;;;;30.70;2.83;;;;;;;24.73;58.96;99564.53;7313189;19;129350;-33
2023/06/27 04:25:43;;;;;;;53.90;4.50;;;;;;;24.71;58.84;99562.06;7312227;19;130395;-40
2023/06/27 04:28:08;;;;;;;33.38;3.13;;;;;;;24.71;59.73;99566.53;7311073;19;129819;-40
2023/06/27 04:30:34;;;;;;;25.30;2.50;;;;;;;24.71;59.05;99564.69;7312570;19;129490;-37
2023/06/27 04:33:00;;;;;;;67.80;5.00;;;;;;;24.72;58.80;99557.63;7312486;19;129398;-46
2023/06/27 04:35:26;;;;;;;;;;;;;;;24.81;58.76;99559.31;7312530;19;130137;-39
2023/06/27 04:37:51;;;;;;;28.60;3.38;;;;;;;24.73;58.60;99559.28;7310056;19;129393;-39
2023/06/27 04:40:17;;;;;;;40.47;3.57;;;;;;;24.72;58.89;99553.22;7312172;19;129065;-42
2023/06/27 04:42:42;;;;;;;45.63;3.63;;;;;;;24.71;58.65;99545.47;7313563;19;129505;-41
2023/06/27 04:45:08;;;;;;;33.20;3.30;;;;;;;24.72;58.54;99547.94;7307490;19;129224;-38
2023/06/27 04:47:37;;;;;;;32.43;3.20;;;;;;;24.71;58.64;99561.25;7311641;19;129477;-38
2023/06/27 04:50:06;;;;;;;28.10;2.65;;;;;;;24.72;58.67;99563.72;7310562;19;129171;-43
2023/06/27 04:52:31;;;;;;;93.03;7.10;;;;;;;24.71;58.80;99562.06;7311030;19;129108;-42
2023/06/27 04:54:56;;;;;;;32.47;3.03;;;;;;;24.71;58.99;99566.53;7313038;19;129441;-42
2023/06/27 04:57:22;;;;;;;55.13;4.83;;;;;;;24.70;58.22;99572.75;7310833;19;130776;-38
2023/06/27 04:59:47;;;;;;;42.50;3.93;;;;;;;24.69;58.29;99569.31;7306306;19;131045;-41
2023/06/27 05:02:13;;;;;;;49.87;4.03;;;;;;;24.71;58.64;99572.56;7312703;19;128824;-38
2023/06/27 05:04:38;;;;;;;34.10;3.13;;;;;;;24.68;58.39;99569.44;7307262;19;129548;-40
2023/06/27 05:07:06;;;;;;;17.23;2.47;;;;;;;24.68;58.85;99572.06;7312104;19;129615;-39
2023/06/27 05:09:32;;;;;;;30.02;2.90;;;;;;;24.68;58.36;99566.81;7306798;19;129179;-47
2023/06/27 05:11:57;;;;;;;35.80;3.13;;;;;;;24.69;58.49;99577.19;7309215;19;128984;-40
2023/06/27 05:14:23;;;;;;;90.17;7.57;;;;;;;24.68;58.28;99565.00;7308927;19;130406;-42
2023/06/27 05:16:49;;;;;;;42.73;3.57;;;;;;;24.68;58.44;99564.19;7308568;19;129456;-37
2023/06/27 05:19:14;;;;;;;38.17;3.10;;;;;;;24.63;58.34;99566.44;7309556;19;129491;-37
2023/06/27 05:21:39;;;;;;;44.22;3.60;;;;;;;24.56;58.40;99555.75;7302110;19;129097;-43
2023/06/27 05:24:05;;;;;;;8.07;1.67;;;;;;;24.66;58.17;99574.03;7311317;19;129778;-33
2023/06/27 05:26:34;;;;;;;48.40;4.57;;;;;;;24.63;58.02;99569.06;7309550;19;130238;-36
2023/06/27 05:28:59;;;;;;;41.28;3.63;;;;;;;24.64;58.55;99571.56;7306920;19;129308;-37
2023/06/27 05:31:26;;;;;;;38.30;3.70;;;;;;;24.62;58.52;99570.88;7307476;19;129178;-42
2023/06/27 05:33:52;;;;;;;;;;;;;;;24.66;58.05;99580.09;7312226;19;130039;-38
2023/06/27 05:36:17;;;;;;;37.83;3.65;;;;;;;24.65;58.36;99588.97;7309000;19;129583;-39
2023/06/27 05:38:42;;;;;;;51.00;4.18;;;;;;;24.54;58.75;99585.81;7304360;19;130071;-42
2023/06/27 05:41:08;;;;;;;85.17;6.37;;;;;;;24.53;58.94;99586.81;7286135;19;129949;-39
2023/06/27 05:43:33;;;;;;;62.25;4.97;;;;;;;24.60;58.81;99590.41;7303096;19;131929;-39
2023/06/27 05:45:58;;;;;;;24.40;2.77;;;;;;;24.56;59.12;99583.84;7308610;19;129622;-40
2023/06/27 05:48:24;;;;;;;53.73;3.97;;;;;;;24.57;59.05;99591.56;7309140;19;129113;-37
2023/06/27 05:50:49;;;;;;;22.53;2.37;;;;;;;24.55;59.31;99584.81;7311395;19;129472;-41
2023/06/27 05:53:14;;;;;;;14.68;1.83;;;;;;;24.56;59.12;99589.91;7308878;19;129579;-42
2023/06/27 05:55:40;;;;;;;37.63;3.03;;;;;;;24.63;59.26;99590.09;7308009;19;129552;-44
2023/06/27 05:58:05;;;;;;;133.37;9.00;;;;;;;24.67;59.35;99599.31;7311422;19;130458;-39
2023/06/27 06:00:30;;;;;;;34.23;2.90;;;;;;;24.64;59.38;99595.22;7307598;19;129549;-40
2023/06/27 06:02:56;;;;;;;40.60;3.50;;;;;;;24.66;59.57;99585.34;7311815;19;131165;-41
2023/06/27 06:05:21;;;;;;;49.13;3.93;;;;;;;24.69;59.29;99594.78;7309657;19;130367;-44
2023/06/27 06:07:46;;;;;;;37.17;3.20;;;;;;;24.70;60.11;99591.97;7310721;19;128969;-43
2023/06/27 06:10:12;;;;;;;87.53;6.13;;;;;;;24.72;59.37;99589.19;7309609;19;129729;-43
2023/06/27 06:12:38;;;;;;;35.70;2.80;;;;;;;24.73;59.10;99591.66;7309236;19;129424;-43
2023/06/27 06:15:04;;;;;;;61.10;5.13;;;;;;;24.75;60.21;99599.38;7308122;19;129101;-40
2023/06/27 06:17:30;;;;;;;57.93;4.40;;;;;;;24.78;59.62;99593.78;7308611;19;129240;-40
2023/06/27 06:19:55;;;;;;;30.23;2.83;;;;;;;24.77;59.38;99595.63;7307740;19;129249;-39
2023/06/27 06:22:20;;;;;;;35.90;3.13;;;;;;;24.81;59.74;99604.03;7308652;19;130355;-41
2023/06/27 06:24:46;;;;;;;38.30;3.23;;;;;;;24.82;59.87;99595.13;7308960;19;129588;-38
2023/06/27 06:27:11;;;;;;;30.03;2.73;;;;;;;24.85;59.96;99594.81;7311090;19;129321;-40
2023/06/27 06:29:37;;;;;;;28.77;2.77;;;;;;;24.86;60.05;99599.09;7308670;19;129352;-42
2023/06/27 06:32:02;;;;;;;34.37;3.10;;;;;;;24.88;59.70;99600.56;7307152;19;129191;-44
2023/06/27 06:34:28;;;;;;;60.37;4.27;;;;;;;24.90;59.72;99613.56;7309172;19;129479;-42
2023/06/27 06:36:53;;;;;;;46.83;3.67;;;;;;;24.89;59.44;99615.34;7308017;19;128945;-43
2023/06/27 06:39:18;;;;;;;32.67;2.70;;;;;;;24.92;60.00;99608.97;7306897;19;129097;-39
2023/06/27 06:41:44;;;;;;;104.73;7.37;;;;;;;24.95;59.47;99616.53;7308736;19;131825;-41
2023/06/27 06:44:09;;;;;;;45.33;3.77;;;;;;;24.94;59.83;99609.63;7311811;19;130474;-41
2023/06/27 06:46:36;;;;;;;26.67;2.70;;;;;;;24.96;59.67;99615.53;7318134;19;129131;-38
2023/06/27 06:49:01;;;;;;;23.55;2.13;;;;;;;24.95;59.79;99616.53;7314757;19;130145;-42
2023/06/27 06:51:26;;;;;;;30.73;2.93;;;;;;;24.97;59.42;99620.66;7314812;19;131070;-37
2023/06/27 06:53:52;;;;;;;44.20;3.30;;;;;;;24.98;59.67;99616.22;7314313;19;129572;-43
2023/06/27 06:56:17;;;;;;;27.10;2.30;;;;;;;25.00;59.90;99619.50;7315744;19;129085;-41
2023/06/27 06:58:43;;;;;;;26.97;2.40;;;;;;;24.92;59.95;99603.72;7314223;19;129782;-44
2023/06/27 07:01:08;;;;;;;37.87;2.87;;;;;;;24.99;59.43;99613.41;7313588;19;129112;-38
2023/06/27 07:03:34;;;;;;;31.30;2.40;;;;;;;25.02;59.41;99614.91;7315441;19;129466;-44
2023/06/27 07:05:59;;;;;;;43.53;3.43;;;;;;;25.02;59.66;99618.38;7314059;19;129089;-43
2023/06/27 07:08:25;;;;;;;30.97;2.67;;;;;;;25.01;60.18;99613.25;7315730;19;129094;-43
2023/06/27 07:10:50;;;;;;;70.20;5.60;;;;;;;24.99;60.03;99623.94;7313447;19;129381;-36
2023/06/27 07:13:16;;;;;;;46.40;3.70;;;;;;;25.02;59.75;99617.53;7314268;19;130342;-41
2023/06/27 07:15:41;;;;;;;18.40;2.03;;;;;;;24.99;60.08;99616.03;7314667;19;128907;-42
2023/06/27 07:18:06;;;;;;;41.43;3.53;;;;;;;25.01;59.75;99619.34;7313371;19;129389;-43
2023/06/27 07:20:32;;;;;;;45.67;3.33;;;;;;;25.03;60.45;99613.91;7314704;19;130043;-38
2023/06/27 07:22:57;;;;;;;14.23;1.60;;;;;;;25.03;60.72;99611.28;7315679;19;131008;-38
2023/06/27 07:25:24;;;;;;;22.97;2.10;;;;;;;25.03;60.50;99619.19;7314568;19;128844;-40
2023/06/27 07:27:49;;;;;;;39.75;3.38;;;;;;;25.02;59.99;99618.38;7315631;19;129571;-34
2023/06/27 07:30:15;;;;;;;47.40;3.17;;;;;;;25.03;60.04;99608.66;7311945;19;129396;-36
2023/06/27 07:32:40;;;;;;;23.20;2.23;;;;;;;25.01;60.50;99616.72;7315959;19;129641;-31
2023/06/27 07:35:06;;;;;;;32.33;2.60;;;;;;;25.03;60.03;99609.50;7310551;19;129117;-37
2023/06/27 07:37:32;;;;;;;52.13;3.87;;;;;;;25.04;60.11;99612.94;7315463;19;129149;-39
2023/06/27 07:40:00;;;;;;;102.73;6.80;;;;;;;25.05;60.03;99606.69;7312450;19;129495;-34
2023/06/27 07:42:26;;;;;;;38.22;3.13;;;;;;;25.06;60.47;99608.31;7313355;19;129640;-41
2023/06/27 07:44:52;;;;;;;7.53;1.50;;;;;;;25.06;60.28;99603.06;7312765;19;129219;-40
2023/06/27 07:47:17;;;;;;;25.23;2.23;;;;;;;25.04;60.68;99599.81;7314995;19;128965;-37
2023/06/27 07:49:42;;;;;;;42.07;3.20;;;;;;;25.07;60.75;99589.75;7312195;19;129201;-35
2023/06/27 07:52:09;;;;;;;44.13;3.67;;;;;;;25.10;60.45;99593.88;7310028;19;130259;-36
2023/06/27 07:54:35;;;;;;;;;;;;;;;25.14;60.72;99589.94;7315191;19;129104;-41
2023/06/27 07:57:00;;;;;;;66.70;4.93;;;;;;;25.07;60.53;99586.31;7313624;19;129060;-39
2023/06/27 07:59:25;;;;;;;51.87;3.67;;;;;;;25.07;60.41;99583.69;7311438;19;129251;-38
2023/06/27 08:01:51;;;;;;;32.77;2.43;;;;;;;25.07;60.51;99583.69;7311510;19;129385;-36
2023/06/27 08:04:16;;;;;;;35.23;2.90;;;;;;;25.09;60.48;99584.34;7314280;19;129324;-34
2023/06/27 08:06:42;;;;;;;59.73;4.07;;;;;;;25.08;60.11;99580.06;7312908;19;129112;-37
2023/06/27 08:09:08;;;;;;;31.17;2.40;;;;;;;25.00;60.43;99562.47;7314472;19;129450;-41
2023/06/27 08:11:33;;;;;;;39.80;3.07;;;;;;;25.12;60.19;99581.41;7311605;19;130304;-34
2023/06/27 08:13:59;;;;;;;30.93;2.37;;;;;;;25.11;60.02;99588.44;7315190;19;129259;-41
2023/06/27 08:16:24;;;;;;;49.20;3.63;;;;;;;25.13;60.02;99583.03;7310779;19;129943;-37
2023/06/27 08:18:49;;;;;;;47.20;3.93;;;;;;;25.15;60.60;99587.16;7310896;19;130027;-38
2023/06/27 08:21:15;;;;;;;25.77;2.17;;;;;;;25.15;60.11;99575.78;7312591;19;129489;-33
2023/06/27 08:23:40;;;;;;;27.83;2.17;;;;;;;25.16;60.10;99578.25;7313973;19;129195;-35
2023/06/27 08:26:05;;;;;;;49.23;3.27;;;;;;;25.16;60.27;99567.75;7312407;19;130061;-39
2023/06/27 08:28:31;;;;;;;33.70;2.67;;;;;;;25.16;60.49;99573.00;7314077;19;128977;-39
2023/06/27 08:30:57;;;;;;;69.57;5.57;;;;;;;25.17;60.30;99579.09;7305423;19;130271;-37
2023/06/27 08:33:22;;;;;;;46.90;3.07;;;;;;;25.15;60.94;99573.16;7312364;19;128980;-36
2023/06/27 08:35:48;;;;;;;38.10;2.90;;;;;;;25.16;60.27;99569.53;7313667;19;128847;-39
2023/06/27 08:38:14;;;;;;;44.43;3.30;;;;;;;25.17;60.19;99571.19;7312077;19;129581;-39
2023/06/27 08:40:42;;;;;;;34.43;2.80;;;;;;;25.18;60.57;99570.22;7311556;19;129394;-32
2023/06/27 08:43:10;;;;;;;30.20;2.45;;;;;;;25.17;60.84;99568.56;7312992;19;129526;-36
2023/06/27 08:45:37;;;;;;;34.03;2.67;;;;;;;25.18;60.64;99565.78;7313684;19;129352;-38
2023/06/27 08:48:06;;;;;;;51.00;3.95;;;;;;;25.19;60.89;99570.03;7311636;19;129275;-39
2023/06/27 08:50:37;;;;;;;28.50;2.42;;;;;;;25.20;60.86;99570.88;7310909;19;130388;-43
2023/06/27 08:53:08;;;;;;;42.85;3.05;;;;;;;25.12;60.49;99565.59;7317514;19;128648;-39
2023/06/27 08:56:18;;;;;;;73.00;4.68;;;;;;;25.17;61.32;99563.31;7321627;19;128833;-32
2023/06/27 08:58:51;;;;;;;99.35;5.38;;;;;;;25.17;60.92;99560.69;7322633;19;129171;-36
2023/06/27 09:01:20;;;;;;;37.08;2.83;;;;;;;25.08;61.07;99543.22;7315245;19;130779;-42
2023/06/27 09:03:46;;;;;;;95.25;5.85;;;;;;;25.19;60.41;99556.06;7318736;19;129697;-37
2023/06/27 09:06:12;;;;;;;122.70;7.33;;;;;;;25.20;60.37;99562.97;7322033;19;129136;-42
2023/06/27 09:08:37;;;;;;;51.57;3.67;;;;;;;25.20;60.63;99573.50;7320129;19;130212;-37
2023/06/27 09:11:08;;;;;;;50.57;3.40;;;;;;;25.18;60.24;99571.03;7318138;19;131845;-35
2023/06/27 09:13:34;;;;;;;79.57;4.90;;;;;;;25.18;60.72;99575.47;7320144;19;130135;-41
2023/06/27 09:16:00;;;;;;;75.50;4.97;;;;;;;25.20;61.14;99578.75;7316822;19;130336;-33
2023/06/27 09:18:26;;;;;;;74.75;5.13;;;;;;;25.23;61.10;99578.44;7320167;19;130055;-41
2023/06/27 09:20:54;;;;;;;41.90;2.80;;;;;;;25.27;61.18;99577.13;7305633;19;129987;-76
2023/06/27 09:23:20;;;;;;;30.13;2.08;;;;;;;25.25;60.60;99574.66;7310753;19;128937;-77
2023/06/27 09:25:45;;;;;;;37.50;2.57;;;;;;;25.28;60.28;99586.66;7306317;19;129458;-76
2023/06/27 09:28:18;;;;;;;89.63;5.50;;;;;;;25.25;61.24;99579.09;7305620;19;133138;-73
2023/06/27 09:30:54;;;;;;;72.57;4.70;;;;;;;25.27;60.57;99569.25;7308713;19;132420;-73
2023/06/27 09:33:19;;;;;;;27.05;2.05;;;;;;;25.29;60.30;99577.78;7310887;19;129260;-73
2023/06/27 09:35:45;;;;;;;71.40;4.27;;;;;;;25.29;60.52;99569.88;7309807;19;129451;-76
2023/06/27 09:38:11;;;;;;;72.23;4.50;;;;;;;25.17;60.52;99558.84;7308183;19;133244;-73
2023/06/27 09:40:36;;;;;;;69.90;4.20;;;;;;;25.28;60.90;99576.97;7307807;19;132064;-75
2023/06/27 09:45:30;;;;;;;40.92;3.05;;;;;;;25.29;60.09;99572.50;7312355;19;129369;-46
2023/06/27 09:47:58;;;;;;;75.03;5.63;;;;;;;25.28;60.36;99578.75;7318766;19;131347;-39
2023/06/27 09:50:26;;;;;;;65.13;4.25;;;;;;;25.27;60.41;99580.56;7318554;19;129433;-36
2023/06/27 09:53:00;;;;;;;79.45;5.07;;;;;;;25.31;61.17;99578.44;7319629;19;129132;-42
2023/06/27 09:55:28;;;;;;;32.60;2.63;;;;;;;25.29;60.30;99573.34;7322675;19;129072;-38
2023/06/27 10:00:22;;;;;;;69.28;4.43;;;;;;;25.31;60.08;99565.28;7316484;19;131290;-34
2023/06/27 10:02:50;;;;;;;79.47;4.95;;;;;;;25.33;60.83;99553.63;7323106;19;128749;-43
2023/06/27 10:05:18;;;;;;;42.45;3.25;;;;;;;25.31;60.22;99560.00;7319107;19;128991;-39
2023/06/27 10:07:44;;;;;;;24.70;2.00;;;;;;;25.31;61.00;99554.75;7312751;19;129104;-35
2023/06/27 10:10:11;;;;;;;65.60;4.18;;;;;;;25.29;60.72;99543.56;7317653;19;130777;-37
2023/06/27 10:12:38;;;;;;;53.63;3.47;;;;;;;25.33;60.93;99552.78;7317798;19;129798;-41
2023/06/27 10:15:04;;;;;;;83.82;4.90;;;;;;;25.34;60.95;99544.72;7315392;19;129921;-78
2023/06/27 10:17:30;;;;;;;;;;;;;;;25.42;60.76;99543.94;7311938;19;132723;-76
2023/06/27 10:19:57;;;;;;;90.43;5.43;;;;;;;25.36;60.11;99534.06;7313325;19;129681;-75
2023/06/27 10:22:29;;;;;;;47.05;3.45;;;;;;;25.29;60.64;99533.03;7314932;19;129280;-75
2023/06/27 10:25:03;;;;;;;66.22;3.88;;;;;;;25.28;60.82;99539.28;7322649;19;129436;-76
2023/06/27 10:27:32;;;;;;;17.15;1.55;;;;;;;25.29;60.76;99533.03;7313322;19;132026;-76
2023/06/27 10:30:01;;;;;;;41.03;2.83;;;;;;;25.30;60.71;99526.81;7314265;19;129511;-75
2023/06/27 10:32:40;;;;;;;75.70;4.60;;;;;;;25.32;60.20;99516.94;7313307;19;130126;-76
2023/06/27 10:35:11;;;;;;;41.72;2.85;;;;;;;25.20;60.56;99510.34;7316144;19;129945;-75
2023/06/27 10:37:39;;;;;;;94.20;5.47;;;;;;;25.30;60.83;99527.59;7309427;19;133086;-76
2023/06/27 10:40:04;;;;;;;88.50;5.13;;;;;;;25.27;60.17;99521.88;7312565;19;129778;-78
2023/06/27 10:42:31;;;;;;;31.63;2.17;;;;;;;25.23;60.08;99499.50;7313095;19;130443;-76
2023/06/27 10:45:10;;;;;;;44.42;2.95;;;;;;;25.31;60.66;99512.63;7311984;19;130554;-74
2023/06/27 10:47:38;;;;;;;65.32;3.88;;;;;;;25.29;60.20;99506.72;7315342;19;129975;-77
2023/06/27 10:50:12;;;;;;;98.10;5.63;;;;;;;25.27;61.13;99504.25;7305947;19;131831;-73
2023/06/27 10:52:39;;;;;;;36.92;2.60;;;;;;;25.30;60.28;99501.28;7315018;19;129781;-73
2023/06/27 10:55:13;;;;;;;67.20;4.03;;;;;;;25.31;60.44;99496.84;7311893;19;129222;-76
2023/06/27 10:57:42;;;;;;;63.13;3.85;;;;;;;25.20;60.40;99476.16;7313149;19;131882;-74
2023/06/27 11:00:29;;;;;;;20.60;1.45;;;;;;;25.31;61.07;99491.59;7311388;19;129394;-74
2023/06/27 11:03:01;;;;;;;51.00;3.20;;;;;;;25.29;61.14;99490.91;7313516;19;129347;-73
2023/06/27 11:05:57;;;;;;;22.83;1.88;;;;;;;25.32;60.84;99490.63;7323314;19;129562;-79
2023/06/27 11:08:27;;;;;;;24.30;1.85;;;;;;;25.29;60.71;99490.91;7310977;19;132155;-77
2023/06/27 11:10:58;;;;;;;88.93;5.00;;;;;;;25.24;60.90;99474.81;7311260;19;133521;-76
2023/06/27 11:13:26;;;;;;;70.07;4.05;;;;;;;25.33;60.77;99502.78;7313643;19;129516;-74
2023/06/27 11:15:53;;;;;;;25.17;1.85;;;;;;;25.30;60.54;99503.91;7314371;19;129088;-77
2023/06/27 11:18:20;;;;;;;34.00;2.40;;;;;;;25.33;60.48;99505.41;7313999;19;132414;-75
2023/06/27 11:20:46;;;;;;;59.78;3.90;;;;;;;25.26;60.65;99489.47;7316981;19;129891;-76
2023/06/27 11:23:13;;;;;;;20.17;1.58;;;;;;;25.29;60.55;99496.19;7318442;19;128945;-74
2023/06/27 11:28:18;;;;;;;51.60;3.65;;;;;;;25.27;60.75;99495.56;7314051;19;129909;-39